sensor_id;sensor_type;location;lat;lon;timestamp;temperature;humidity
65989;HTU21D;53592;51.402;6.054;2023-06-19T00:00:10;23.85;55.29
65989;HTU21D;53592;51.402;6.054;2023-06-19T00:02:41;23.84;55.23
65989;HTU21D;53592;51.402;6.054;2023-06-19T00:05:07;23.86;55.35
65989;HTU21D;53592;51.402;6.054;2023-06-19T00:07:37;23.88;55.37
65989;HTU21D;53592;51.402;6.054;2023-06-19T00:10:04;23.85;55.34
65989;HTU21D;53592;51.402;6.054;2023-06-19T00:12:29;23.86;55.53
65989;HTU21D;53592;51.402;6.054;2023-06-19T00:14:55;23.83;55.63
65989;HTU21D;53592;51.402;6.054;2023-06-19T00:17:20;23.81;55.71
65989;HTU21D;53592;51.402;6.054;2023-06-19T00:19:46;23.80;55.68
65989;HTU21D;53592;51.402;6.054;2023-06-19T00:22:14;23.79;55.65
65989;HTU21D;53592;51.402;6.054;2023-06-19T00:24:39;23.77;55.64
65989;HTU21D;53592;51.402;6.054;2023-06-19T00:27:05;23.76;55.53
65989;HTU21D;53592;51.402;6.054;2023-06-19T00:29:31;23.73;55.58
65989;HTU21D;53592;51.402;6.054;2023-06-19T00:31:58;23.73;55.52
65989;HTU21D;53592;51.402;6.054;2023-06-19T00:34:23;23.76;55.44
65989;HTU21D;53592;51.402;6.054;2023-06-19T00:36:50;23.76;55.34
65989;HTU21D;53592;51.402;6.054;2023-06-19T00:39:16;23.75;55.23
65989;HTU21D;53592;51.402;6.054;2023-06-19T00:41:43;23.75;55.20
65989;HTU21D;53592;51.402;6.054;2023-06-19T00:44:09;23.76;55.09
65989;HTU21D;53592;51.402;6.054;2023-06-19T00:46:40;23.73;55.25
65989;HTU21D;53592;51.402;6.054;2023-06-19T00:49:07;23.71;55.25
65989;HTU21D;53592;51.402;6.054;2023-06-19T00:51:33;23.70;55.18
65989;HTU21D;53592;51.402;6.054;2023-06-19T00:53:59;23.69;55.15
65989;HTU21D;53592;51.402;6.054;2023-06-19T00:56:25;23.71;55.04
65989;HTU21D;53592;51.402;6.054;2023-06-19T00:58:52;23.69;55.14
65989;HTU21D;53592;51.402;6.054;2023-06-19T01:01:19;23.62;55.29
65989;HTU21D;53592;51.402;6.054;2023-06-19T01:03:46;23.53;55.52
65989;HTU21D;53592;51.402;6.054;2023-06-19T01:06:21;23.45;55.66
65989;HTU21D;53592;51.402;6.054;2023-06-19T01:09:05;23.40;55.70
65989;HTU21D;53592;51.402;6.054;2023-06-19T01:11:39;23.38;55.61
65989;HTU21D;53592;51.402;6.054;2023-06-19T01:14:14;23.37;55.52
65989;HTU21D;53592;51.402;6.054;2023-06-19T01:16:41;23.37;55.49
65989;HTU21D;53592;51.402;6.054;2023-06-19T01:19:10;23.32;55.50
65989;HTU21D;53592;51.402;6.054;2023-06-19T01:21:41;23.30;55.57
65989;HTU21D;53592;51.402;6.054;2023-06-19T01:24:07;23.28;55.58
65989;HTU21D;53592;51.402;6.054;2023-06-19T01:26:33;23.27;55.65
65989;HTU21D;53592;51.402;6.054;2023-06-19T01:28:58;23.25;55.55
65989;HTU21D;53592;51.402;6.054;2023-06-19T01:31:37;23.22;55.56
65989;HTU21D;53592;51.402;6.054;2023-06-19T01:34:06;23.18;55.57
65989;HTU21D;53592;51.402;6.054;2023-06-19T01:36:34;23.16;55.59
65989;HTU21D;53592;51.402;6.054;2023-06-19T01:39:00;23.17;55.63
65989;HTU21D;53592;51.402;6.054;2023-06-19T01:41:28;23.18;55.74
65989;HTU21D;53592;51.402;6.054;2023-06-19T01:43:56;23.14;55.73
65989;HTU21D;53592;51.402;6.054;2023-06-19T01:46:23;23.10;56.00
65989;HTU21D;53592;51.402;6.054;2023-06-19T01:48:48;23.06;56.23
65989;HTU21D;53592;51.402;6.054;2023-06-19T01:51:14;22.99;56.55
65989;HTU21D;53592;51.402;6.054;2023-06-19T01:53:39;22.99;56.76
65989;HTU21D;53592;51.402;6.054;2023-06-19T01:56:05;22.92;57.24
65989;HTU21D;53592;51.402;6.054;2023-06-19T01:58:31;22.88;57.26
65989;HTU21D;53592;51.402;6.054;2023-06-19T02:00:56;22.88;57.55
65989;HTU21D;53592;51.402;6.054;2023-06-19T02:03:22;22.84;57.74
65989;HTU21D;53592;51.402;6.054;2023-06-19T02:05:47;22.85;57.78
65989;HTU21D;53592;51.402;6.054;2023-06-19T02:08:13;22.88;57.87
65989;HTU21D;53592;51.402;6.054;2023-06-19T02:10:38;22.90;57.86
65989;HTU21D;53592;51.402;6.054;2023-06-19T02:13:04;22.88;58.11
65989;HTU21D;53592;51.402;6.054;2023-06-19T02:15:29;22.90;58.07
65989;HTU21D;53592;51.402;6.054;2023-06-19T02:17:55;22.93;58.19
65989;HTU21D;53592;51.402;6.054;2023-06-19T02:20:23;22.86;58.78
65989;HTU21D;53592;51.402;6.054;2023-06-19T02:22:50;22.83;58.89
65989;HTU21D;53592;51.402;6.054;2023-06-19T02:25:16;22.79;59.04
65989;HTU21D;53592;51.402;6.054;2023-06-19T02:27:41;22.79;59.08
65989;HTU21D;53592;51.402;6.054;2023-06-19T02:30:07;22.73;59.45
65989;HTU21D;53592;51.402;6.054;2023-06-19T02:32:33;22.66;59.71
65989;HTU21D;53592;51.402;6.054;2023-06-19T02:34:58;22.55;60.19
65989;HTU21D;53592;51.402;6.054;2023-06-19T02:37:24;22.51;60.56
65989;HTU21D;53592;51.402;6.054;2023-06-19T02:39:49;22.40;60.74
65989;HTU21D;53592;51.402;6.054;2023-06-19T02:42:15;22.32;61.07
65989;HTU21D;53592;51.402;6.054;2023-06-19T02:44:40;22.25;61.34
65989;HTU21D;53592;51.402;6.054;2023-06-19T02:47:07;22.23;61.63
65989;HTU21D;53592;51.402;6.054;2023-06-19T02:49:33;22.14;61.88
65989;HTU21D;53592;51.402;6.054;2023-06-19T02:51:58;22.12;61.97
65989;HTU21D;53592;51.402;6.054;2023-06-19T02:54:24;22.08;62.15
65989;HTU21D;53592;51.402;6.054;2023-06-19T02:56:49;22.06;62.27
65989;HTU21D;53592;51.402;6.054;2023-06-19T02:59:15;22.05;62.45
65989;HTU21D;53592;51.402;6.054;2023-06-19T03:01:40;22.03;62.73
65989;HTU21D;53592;51.402;6.054;2023-06-19T03:04:06;21.97;63.12
65989;HTU21D;53592;51.402;6.054;2023-06-19T03:06:31;21.97;63.30
65989;HTU21D;53592;51.402;6.054;2023-06-19T03:09:03;21.98;63.61
65989;HTU21D;53592;51.402;6.054;2023-06-19T03:11:29;21.92;64.02
65989;HTU21D;53592;51.402;6.054;2023-06-19T03:13:54;21.90;64.18
65989;HTU21D;53592;51.402;6.054;2023-06-19T03:16:20;21.90;64.34
65989;HTU21D;53592;51.402;6.054;2023-06-19T03:18:47;21.83;64.60
65989;HTU21D;53592;51.402;6.054;2023-06-19T03:21:16;21.81;64.68
65989;HTU21D;53592;51.402;6.054;2023-06-19T03:23:42;21.89;64.54
65989;HTU21D;53592;51.402;6.054;2023-06-19T03:26:08;21.84;64.71
65989;HTU21D;53592;51.402;6.054;2023-06-19T03:28:34;21.80;64.81
65989;HTU21D;53592;51.402;6.054;2023-06-19T03:31:00;21.79;64.94
65989;HTU21D;53592;51.402;6.054;2023-06-19T03:33:26;21.75;65.08
65989;HTU21D;53592;51.402;6.054;2023-06-19T03:35:52;21.75;65.09
65989;HTU21D;53592;51.402;6.054;2023-06-19T03:38:17;21.69;65.40
65989;HTU21D;53592;51.402;6.054;2023-06-19T03:40:43;21.60;65.75
65989;HTU21D;53592;51.402;6.054;2023-06-19T03:43:08;21.50;66.23
65989;HTU21D;53592;51.402;6.054;2023-06-19T03:45:34;21.40;66.65
65989;HTU21D;53592;51.402;6.054;2023-06-19T03:47:59;21.33;66.98
65989;HTU21D;53592;51.402;6.054;2023-06-19T03:50:25;21.32;67.09
65989;HTU21D;53592;51.402;6.054;2023-06-19T03:52:50;21.31;67.39
65989;HTU21D;53592;51.402;6.054;2023-06-19T03:55:16;21.29;67.49
65989;HTU21D;53592;51.402;6.054;2023-06-19T03:57:41;21.34;67.47
65989;HTU21D;53592;51.402;6.054;2023-06-19T04:00:07;21.20;68.22
65989;HTU21D;53592;51.402;6.054;2023-06-19T04:02:35;21.14;68.17
65989;HTU21D;53592;51.402;6.054;2023-06-19T04:05:01;21.17;68.21
65989;HTU21D;53592;51.402;6.054;2023-06-19T04:07:26;21.14;68.55
65989;HTU21D;53592;51.402;6.054;2023-06-19T04:09:52;21.04;69.05
65989;HTU21D;53592;51.402;6.054;2023-06-19T04:12:18;21.02;69.00
65989;HTU21D;53592;51.402;6.054;2023-06-19T04:14:43;21.08;69.07
65989;HTU21D;53592;51.402;6.054;2023-06-19T04:17:09;21.17;69.30
65989;HTU21D;53592;51.402;6.054;2023-06-19T04:19:34;21.17;68.95
65989;HTU21D;53592;51.402;6.054;2023-06-19T04:22:00;21.22;68.97
65989;HTU21D;53592;51.402;6.054;2023-06-19T04:24:25;21.20;69.33
65989;HTU21D;53592;51.402;6.054;2023-06-19T04:26:50;21.17;69.35
65989;HTU21D;53592;51.402;6.054;2023-06-19T04:29:16;21.27;69.32
65989;HTU21D;53592;51.402;6.054;2023-06-19T04:31:45;21.30;69.38
65989;HTU21D;53592;51.402;6.054;2023-06-19T04:34:16;21.31;69.36
65989;HTU21D;53592;51.402;6.054;2023-06-19T04:36:42;21.36;69.26
65989;HTU21D;53592;51.402;6.054;2023-06-19T04:39:07;21.39;69.20
65989;HTU21D;53592;51.402;6.054;2023-06-19T04:41:33;21.44;69.13
65989;HTU21D;53592;51.402;6.054;2023-06-19T04:43:58;21.52;68.80
65989;HTU21D;53592;51.402;6.054;2023-06-19T04:46:25;21.55;68.74
65989;HTU21D;53592;51.402;6.054;2023-06-19T04:48:51;21.58;68.77
65989;HTU21D;53592;51.402;6.054;2023-06-19T04:51:17;21.53;68.96
65989;HTU21D;53592;51.402;6.054;2023-06-19T04:53:46;21.58;68.95
65989;HTU21D;53592;51.402;6.054;2023-06-19T04:56:12;21.62;68.79
65989;HTU21D;53592;51.402;6.054;2023-06-19T04:58:38;21.63;68.96
65989;HTU21D;53592;51.402;6.054;2023-06-19T05:01:13;21.63;68.97
65989;HTU21D;53592;51.402;6.054;2023-06-19T05:03:39;21.66;68.84
65989;HTU21D;53592;51.402;6.054;2023-06-19T05:06:05;21.70;68.67
65989;HTU21D;53592;51.402;6.054;2023-06-19T05:08:30;21.72;68.87
65989;HTU21D;53592;51.402;6.054;2023-06-19T05:10:56;21.73;68.98
65989;HTU21D;53592;51.402;6.054;2023-06-19T05:13:23;21.72;68.98
65989;HTU21D;53592;51.402;6.054;2023-06-19T05:15:49;21.78;68.81
65989;HTU21D;53592;51.402;6.054;2023-06-19T05:18:16;21.83;68.64
65989;HTU21D;53592;51.402;6.054;2023-06-19T05:20:42;21.82;68.63
65989;HTU21D;53592;51.402;6.054;2023-06-19T05:23:07;21.78;68.65
65989;HTU21D;53592;51.402;6.054;2023-06-19T05:25:33;21.78;68.77
65989;HTU21D;53592;51.402;6.054;2023-06-19T05:27:58;21.90;68.58
65989;HTU21D;53592;51.402;6.054;2023-06-19T05:30:24;21.90;68.47
65989;HTU21D;53592;51.402;6.054;2023-06-19T05:32:49;21.93;68.41
65989;HTU21D;53592;51.402;6.054;2023-06-19T05:35:15;21.95;68.48
65989;HTU21D;53592;51.402;6.054;2023-06-19T05:37:40;21.98;68.44
65989;HTU21D;53592;51.402;6.054;2023-06-19T05:40:09;22.02;68.48
65989;HTU21D;53592;51.402;6.054;2023-06-19T05:42:35;22.07;68.30
65989;HTU21D;53592;51.402;6.054;2023-06-19T05:45:01;22.11;68.21
65989;HTU21D;53592;51.402;6.054;2023-06-19T05:47:28;22.14;68.23
65989;HTU21D;53592;51.402;6.054;2023-06-19T05:49:54;22.16;68.16
65989;HTU21D;53592;51.402;6.054;2023-06-19T05:52:20;22.20;68.21
65989;HTU21D;53592;51.402;6.054;2023-06-19T05:54:47;22.27;68.26
65989;HTU21D;53592;51.402;6.054;2023-06-19T05:57:12;22.33;68.04
65989;HTU21D;53592;51.402;6.054;2023-06-19T05:59:38;22.35;68.04
65989;HTU21D;53592;51.402;6.054;2023-06-19T06:02:04;22.39;67.88
65989;HTU21D;53592;51.402;6.054;2023-06-19T06:04:30;22.41;67.65
65989;HTU21D;53592;51.402;6.054;2023-06-19T06:06:56;22.41;67.66
65989;HTU21D;53592;51.402;6.054;2023-06-19T06:09:22;22.43;67.87
65989;HTU21D;53592;51.402;6.054;2023-06-19T06:11:47;22.41;67.80
65989;HTU21D;53592;51.402;6.054;2023-06-19T06:14:13;22.42;67.75
65989;HTU21D;53592;51.402;6.054;2023-06-19T06:16:39;22.40;67.78
65989;HTU21D;53592;51.402;6.054;2023-06-19T06:19:06;22.36;67.91
65989;HTU21D;53592;51.402;6.054;2023-06-19T06:21:31;22.37;68.20
65989;HTU21D;53592;51.402;6.054;2023-06-19T06:23:57;22.34;68.12
65989;HTU21D;53592;51.402;6.054;2023-06-19T06:26:22;22.31;68.58
65989;HTU21D;53592;51.402;6.054;2023-06-19T06:28:48;22.25;68.77
65989;HTU21D;53592;51.402;6.054;2023-06-19T06:31:13;22.23;69.24
65989;HTU21D;53592;51.402;6.054;2023-06-19T06:33:39;22.27;69.42
65989;HTU21D;53592;51.402;6.054;2023-06-19T06:36:05;22.33;69.13
65989;HTU21D;53592;51.402;6.054;2023-06-19T06:38:30;22.32;69.36
65989;HTU21D;53592;51.402;6.054;2023-06-19T06:40:56;22.36;69.24
65989;HTU21D;53592;51.402;6.054;2023-06-19T06:43:21;22.50;69.03
65989;HTU21D;53592;51.402;6.054;2023-06-19T06:45:47;22.57;68.86
65989;HTU21D;53592;51.402;6.054;2023-06-19T06:48:13;22.62;68.55
65989;HTU21D;53592;51.402;6.054;2023-06-19T06:50:38;22.64;68.55
65989;HTU21D;53592;51.402;6.054;2023-06-19T06:53:04;22.63;68.81
65989;HTU21D;53592;51.402;6.054;2023-06-19T06:55:29;22.66;68.60
65989;HTU21D;53592;51.402;6.054;2023-06-19T06:57:55;22.69;68.52
65989;HTU21D;53592;51.402;6.054;2023-06-19T07:00:20;22.76;68.31
65989;HTU21D;53592;51.402;6.054;2023-06-19T07:02:46;22.82;68.45
65989;HTU21D;53592;51.402;6.054;2023-06-19T07:05:13;22.98;68.31
65989;HTU21D;53592;51.402;6.054;2023-06-19T07:07:38;23.22;67.41
65989;HTU21D;53592;51.402;6.054;2023-06-19T07:10:05;23.44;67.14
65989;HTU21D;53592;51.402;6.054;2023-06-19T07:12:30;23.83;66.02
65989;HTU21D;53592;51.402;6.054;2023-06-19T07:14:56;24.20;64.53
65989;HTU21D;53592;51.402;6.054;2023-06-19T07:17:22;24.57;62.34
65989;HTU21D;53592;51.402;6.054;2023-06-19T07:19:47;24.97;61.84
65989;HTU21D;53592;51.402;6.054;2023-06-19T07:22:13;25.13;61.21
65989;HTU21D;53592;51.402;6.054;2023-06-19T07:24:42;25.31;60.28
65989;HTU21D;53592;51.402;6.054;2023-06-19T07:27:08;25.43;59.35
65989;HTU21D;53592;51.402;6.054;2023-06-19T07:29:33;25.46;58.48
65989;HTU21D;53592;51.402;6.054;2023-06-19T07:31:59;25.28;58.62
65989;HTU21D;53592;51.402;6.054;2023-06-19T07:34:26;25.13;58.52
65989;HTU21D;53592;51.402;6.054;2023-06-19T07:36:51;24.93;59.50
65989;HTU21D;53592;51.402;6.054;2023-06-19T07:39:17;24.94;59.92
65989;HTU21D;53592;51.402;6.054;2023-06-19T07:41:42;25.09;59.51
65989;HTU21D;53592;51.402;6.054;2023-06-19T07:44:08;25.14;59.34
65989;HTU21D;53592;51.402;6.054;2023-06-19T07:46:33;25.12;59.05
65989;HTU21D;53592;51.402;6.054;2023-06-19T07:48:59;25.18;58.70
65989;HTU21D;53592;51.402;6.054;2023-06-19T07:51:24;25.23;58.46
65989;HTU21D;53592;51.402;6.054;2023-06-19T07:53:50;25.13;58.60
65989;HTU21D;53592;51.402;6.054;2023-06-19T07:56:15;25.02;58.72
65989;HTU21D;53592;51.402;6.054;2023-06-19T07:58:41;25.02;59.05
65989;HTU21D;53592;51.402;6.054;2023-06-19T08:01:06;25.17;59.23
65989;HTU21D;53592;51.402;6.054;2023-06-19T08:03:32;25.61;58.20
65989;HTU21D;53592;51.402;6.054;2023-06-19T08:05:57;25.96;57.11
65989;HTU21D;53592;51.402;6.054;2023-06-19T08:08:23;26.41;55.99
65989;HTU21D;53592;51.402;6.054;2023-06-19T08:10:48;26.91;54.36
65989;HTU21D;53592;51.402;6.054;2023-06-19T08:13:14;27.29;52.33
65989;HTU21D;53592;51.402;6.054;2023-06-19T08:15:39;27.51;51.38
65989;HTU21D;53592;51.402;6.054;2023-06-19T08:18:04;27.71;50.96
65989;HTU21D;53592;51.402;6.054;2023-06-19T08:20:30;28.04;49.89
65989;HTU21D;53592;51.402;6.054;2023-06-19T08:22:56;28.35;48.89
65989;HTU21D;53592;51.402;6.054;2023-06-19T08:25:22;28.50;47.79
65989;HTU21D;53592;51.402;6.054;2023-06-19T08:27:48;28.45;47.67
65989;HTU21D;53592;51.402;6.054;2023-06-19T08:30:13;28.46;46.90
65989;HTU21D;53592;51.402;6.054;2023-06-19T08:32:39;28.41;46.89
65989;HTU21D;53592;51.402;6.054;2023-06-19T08:35:04;28.33;46.82
65989;HTU21D;53592;51.402;6.054;2023-06-19T08:37:30;28.40;46.84
65989;HTU21D;53592;51.402;6.054;2023-06-19T08:39:56;28.42;46.76
65989;HTU21D;53592;51.402;6.054;2023-06-19T08:42:22;28.28;46.52
65989;HTU21D;53592;51.402;6.054;2023-06-19T08:44:48;28.04;46.40
65989;HTU21D;53592;51.402;6.054;2023-06-19T08:47:14;27.90;46.58
65989;HTU21D;53592;51.402;6.054;2023-06-19T08:49:40;27.83;46.34
65989;HTU21D;53592;51.402;6.054;2023-06-19T08:52:06;27.63;46.93
65989;HTU21D;53592;51.402;6.054;2023-06-19T08:54:32;27.56;47.59
65989;HTU21D;53592;51.402;6.054;2023-06-19T08:57:04;27.79;47.85
65989;HTU21D;53592;51.402;6.054;2023-06-19T08:59:30;28.08;45.80
65989;HTU21D;53592;51.402;6.054;2023-06-19T09:01:57;28.17;46.08
65989;HTU21D;53592;51.402;6.054;2023-06-19T09:04:27;28.33;45.96
65989;HTU21D;53592;51.402;6.054;2023-06-19T09:06:57;28.40;45.32
65989;HTU21D;53592;51.402;6.054;2023-06-19T09:09:25;28.42;45.26
65989;HTU21D;53592;51.402;6.054;2023-06-19T09:12:00;28.41;45.35
65989;HTU21D;53592;51.402;6.054;2023-06-19T09:14:43;28.58;45.08
65989;HTU21D;53592;51.402;6.054;2023-06-19T09:17:20;28.89;44.46
65989;HTU21D;53592;51.402;6.054;2023-06-19T09:19:50;29.29;42.85
65989;HTU21D;53592;51.402;6.054;2023-06-19T09:22:17;29.52;42.58
65989;HTU21D;53592;51.402;6.054;2023-06-19T09:24:47;29.65;42.66
65989;HTU21D;53592;51.402;6.054;2023-06-19T09:27:15;29.87;42.68
65989;HTU21D;53592;51.402;6.054;2023-06-19T09:29:45;29.90;42.16
65989;HTU21D;53592;51.402;6.054;2023-06-19T09:32:21;29.85;41.12
65989;HTU21D;53592;51.402;6.054;2023-06-19T09:34:48;29.70;41.29
65989;HTU21D;53592;51.402;6.054;2023-06-19T09:37:22;29.47;41.84
65989;HTU21D;53592;51.402;6.054;2023-06-19T09:39:59;29.54;41.58
65989;HTU21D;53592;51.402;6.054;2023-06-19T09:42:33;29.58;41.77
65989;HTU21D;53592;51.402;6.054;2023-06-19T09:45:08;29.63;41.26
65989;HTU21D;53592;51.402;6.054;2023-06-19T09:47:43;29.52;41.72
65989;HTU21D;53592;51.402;6.054;2023-06-19T09:50:12;29.47;41.74
65989;HTU21D;53592;51.402;6.054;2023-06-19T09:52:39;29.52;41.99
65989;HTU21D;53592;51.402;6.054;2023-06-19T09:55:06;29.39;41.67
65989;HTU21D;53592;51.402;6.054;2023-06-19T09:57:33;29.45;41.35
65989;HTU21D;53592;51.402;6.054;2023-06-19T10:00:00;29.73;40.98
65989;HTU21D;53592;51.402;6.054;2023-06-19T10:02:36;30.15;39.43
65989;HTU21D;53592;51.402;6.054;2023-06-19T10:05:04;30.27;40.34
65989;HTU21D;53592;51.402;6.054;2023-06-19T10:07:34;30.53;40.36
65989;HTU21D;53592;51.402;6.054;2023-06-19T10:10:08;30.87;38.66
65989;HTU21D;53592;51.402;6.054;2023-06-19T10:12:35;31.10;38.74
65989;HTU21D;53592;51.402;6.054;2023-06-19T10:15:27;31.28;38.25
65989;HTU21D;53592;51.402;6.054;2023-06-19T10:17:59;31.34;37.90
65989;HTU21D;53592;51.402;6.054;2023-06-19T10:20:29;31.50;37.48
65989;HTU21D;53592;51.402;6.054;2023-06-19T10:23:07;31.68;37.02
65989;HTU21D;53592;51.402;6.054;2023-06-19T10:25:35;31.73;36.11
65989;HTU21D;53592;51.402;6.054;2023-06-19T10:28:02;31.79;36.01
65989;HTU21D;53592;51.402;6.054;2023-06-19T10:30:31;31.89;37.24
65989;HTU21D;53592;51.402;6.054;2023-06-19T10:32:58;32.07;36.11
65989;HTU21D;53592;51.402;6.054;2023-06-19T10:35:24;32.22;35.59
65989;HTU21D;53592;51.402;6.054;2023-06-19T10:37:50;32.32;34.66
65989;HTU21D;53592;51.402;6.054;2023-06-19T10:40:17;32.17;34.79
65989;HTU21D;53592;51.402;6.054;2023-06-19T10:42:43;31.89;34.92
65989;HTU21D;53592;51.402;6.054;2023-06-19T10:45:11;31.70;35.20
65989;HTU21D;53592;51.402;6.054;2023-06-19T10:47:38;31.65;35.53
65989;HTU21D;53592;51.402;6.054;2023-06-19T10:50:14;31.60;34.47
65989;HTU21D;53592;51.402;6.054;2023-06-19T10:52:44;31.44;33.77
65989;HTU21D;53592;51.402;6.054;2023-06-19T10:55:12;31.31;34.07
65989;HTU21D;53592;51.402;6.054;2023-06-19T10:57:39;31.22;34.34
65989;HTU21D;53592;51.402;6.054;2023-06-19T11:00:06;31.00;34.57
65989;HTU21D;53592;51.402;6.054;2023-06-19T11:02:37;30.89;35.73
65989;HTU21D;53592;51.402;6.054;2023-06-19T11:05:05;30.95;35.40
65989;HTU21D;53592;51.402;6.054;2023-06-19T11:07:32;30.85;34.71
65989;HTU21D;53592;51.402;6.054;2023-06-19T11:09:57;30.56;35.50
65989;HTU21D;53592;51.402;6.054;2023-06-19T11:12:23;30.48;35.77
65989;HTU21D;53592;51.402;6.054;2023-06-19T11:14:49;30.47;35.10
65989;HTU21D;53592;51.402;6.054;2023-06-19T11:17:16;30.60;35.19
65989;HTU21D;53592;51.402;6.054;2023-06-19T11:19:43;30.80;34.64
65989;HTU21D;53592;51.402;6.054;2023-06-19T11:22:10;30.78;34.42
65989;HTU21D;53592;51.402;6.054;2023-06-19T11:24:36;30.81;34.76
65989;HTU21D;53592;51.402;6.054;2023-06-19T11:27:02;30.68;35.03
65989;HTU21D;53592;51.402;6.054;2023-06-19T11:29:31;30.69;35.58
65989;HTU21D;53592;51.402;6.054;2023-06-19T11:32:09;30.84;35.15
65989;HTU21D;53592;51.402;6.054;2023-06-19T11:34:36;31.02;34.92
65989;HTU21D;53592;51.402;6.054;2023-06-19T11:39:37;31.06;35.40
65989;HTU21D;53592;51.402;6.054;2023-06-19T11:42:03;31.25;34.94
65989;HTU21D;53592;51.402;6.054;2023-06-19T11:44:28;31.52;34.29
65989;HTU21D;53592;51.402;6.054;2023-06-19T11:46:57;31.65;33.39
65989;HTU21D;53592;51.402;6.054;2023-06-19T11:49:26;31.76;33.23
65989;HTU21D;53592;51.402;6.054;2023-06-19T11:51:51;31.81;32.52
65989;HTU21D;53592;51.402;6.054;2023-06-19T11:54:18;31.70;32.66
65989;HTU21D;53592;51.402;6.054;2023-06-19T11:56:44;31.66;33.45
65989;HTU21D;53592;51.402;6.054;2023-06-19T11:59:09;31.84;33.81
65989;HTU21D;53592;51.402;6.054;2023-06-19T12:01:36;32.02;33.22
65989;HTU21D;53592;51.402;6.054;2023-06-19T12:04:03;32.12;32.48
65989;HTU21D;53592;51.402;6.054;2023-06-19T12:06:29;32.14;32.41
65989;HTU21D;53592;51.402;6.054;2023-06-19T12:08:55;32.04;32.56
65989;HTU21D;53592;51.402;6.054;2023-06-19T12:11:21;31.86;32.22
65989;HTU21D;53592;51.402;6.054;2023-06-19T12:13:47;31.75;32.39
65989;HTU21D;53592;51.402;6.054;2023-06-19T12:16:14;31.72;32.53
65989;HTU21D;53592;51.402;6.054;2023-06-19T12:18:40;31.85;31.17
65989;HTU21D;53592;51.402;6.054;2023-06-19T12:21:06;31.94;30.76
65989;HTU21D;53592;51.402;6.054;2023-06-19T12:23:32;32.03;30.19
65989;HTU21D;53592;51.402;6.054;2023-06-19T12:25:58;32.03;29.94
65989;HTU21D;53592;51.402;6.054;2023-06-19T12:28:24;32.02;29.85
65989;HTU21D;53592;51.402;6.054;2023-06-19T12:30:52;32.10;30.30
65989;HTU21D;53592;51.402;6.054;2023-06-19T12:33:19;32.19;29.61
65989;HTU21D;53592;51.402;6.054;2023-06-19T12:35:46;32.15;29.87
65989;HTU21D;53592;51.402;6.054;2023-06-19T12:38:12;32.30;30.27
65989;HTU21D;53592;51.402;6.054;2023-06-19T12:40:37;32.39;30.42
65989;HTU21D;53592;51.402;6.054;2023-06-19T12:43:03;32.49;30.13
65989;HTU21D;53592;51.402;6.054;2023-06-19T12:45:29;32.66;29.39
65989;HTU21D;53592;51.402;6.054;2023-06-19T12:47:55;32.60;29.95
65989;HTU21D;53592;51.402;6.054;2023-06-19T12:50:21;32.79;29.00
65989;HTU21D;53592;51.402;6.054;2023-06-19T12:52:47;32.99;28.73
65989;HTU21D;53592;51.402;6.054;2023-06-19T12:55:13;32.97;28.70
65989;HTU21D;53592;51.402;6.054;2023-06-19T12:57:38;33.07;28.50
65989;HTU21D;53592;51.402;6.054;2023-06-19T13:00:09;32.96;28.61
65989;HTU21D;53592;51.402;6.054;2023-06-19T13:02:35;32.87;29.22
65989;HTU21D;53592;51.402;6.054;2023-06-19T13:05:01;32.97;28.65
65989;HTU21D;53592;51.402;6.054;2023-06-19T13:07:26;33.01;27.83
65989;HTU21D;53592;51.402;6.054;2023-06-19T13:09:52;33.09;27.39
65989;HTU21D;53592;51.402;6.054;2023-06-19T13:12:17;33.13;26.97
65989;HTU21D;53592;51.402;6.054;2023-06-19T13:14:43;33.07;26.52
65989;HTU21D;53592;51.402;6.054;2023-06-19T13:17:08;32.92;27.20
65989;HTU21D;53592;51.402;6.054;2023-06-19T13:19:34;32.85;27.59
65989;HTU21D;53592;51.402;6.054;2023-06-19T13:21:59;32.78;28.01
65989;HTU21D;53592;51.402;6.054;2023-06-19T13:24:25;32.91;27.73
65989;HTU21D;53592;51.402;6.054;2023-06-19T13:26:54;32.92;27.42
65989;HTU21D;53592;51.402;6.054;2023-06-19T13:29:19;33.01;27.79
65989;HTU21D;53592;51.402;6.054;2023-06-19T13:31:45;33.12;27.44
65989;HTU21D;53592;51.402;6.054;2023-06-19T13:34:11;33.11;27.32
65989;HTU21D;53592;51.402;6.054;2023-06-19T13:36:37;33.21;27.55
65989;HTU21D;53592;51.402;6.054;2023-06-19T13:39:03;33.08;27.88
65989;HTU21D;53592;51.402;6.054;2023-06-19T13:41:29;33.02;27.65
65989;HTU21D;53592;51.402;6.054;2023-06-19T13:43:58;32.97;27.35
65989;HTU21D;53592;51.402;6.054;2023-06-19T13:46:23;32.92;27.44
65989;HTU21D;53592;51.402;6.054;2023-06-19T13:48:49;32.96;27.39
65989;HTU21D;53592;51.402;6.054;2023-06-19T13:51:21;32.99;27.62
65989;HTU21D;53592;51.402;6.054;2023-06-19T13:53:47;33.09;26.76
65989;HTU21D;53592;51.402;6.054;2023-06-19T13:56:13;33.09;27.16
65989;HTU21D;53592;51.402;6.054;2023-06-19T13:58:39;33.13;27.11
65989;HTU21D;53592;51.402;6.054;2023-06-19T14:01:05;33.08;27.38
65989;HTU21D;53592;51.402;6.054;2023-06-19T14:03:31;32.99;26.81
65989;HTU21D;53592;51.402;6.054;2023-06-19T14:05:57;32.83;27.56
65989;HTU21D;53592;51.402;6.054;2023-06-19T14:08:22;32.68;27.34
65989;HTU21D;53592;51.402;6.054;2023-06-19T14:10:49;32.55;28.01
65989;HTU21D;53592;51.402;6.054;2023-06-19T14:13:15;32.61;28.27
65989;HTU21D;53592;51.402;6.054;2023-06-19T14:15:41;32.66;27.81
65989;HTU21D;53592;51.402;6.054;2023-06-19T14:18:06;32.63;27.90
65989;HTU21D;53592;51.402;6.054;2023-06-19T14:20:32;32.52;28.57
65989;HTU21D;53592;51.402;6.054;2023-06-19T14:22:57;32.46;28.38
65989;HTU21D;53592;51.402;6.054;2023-06-19T14:25:23;32.37;28.93
65989;HTU21D;53592;51.402;6.054;2023-06-19T14:27:48;32.29;28.44
65989;HTU21D;53592;51.402;6.054;2023-06-19T14:30:14;32.27;28.54
65989;HTU21D;53592;51.402;6.054;2023-06-19T14:32:39;32.28;28.68
65989;HTU21D;53592;51.402;6.054;2023-06-19T14:35:05;32.19;28.63
65989;HTU21D;53592;51.402;6.054;2023-06-19T14:37:31;32.14;29.05
65989;HTU21D;53592;51.402;6.054;2023-06-19T14:39:57;32.15;28.79
65989;HTU21D;53592;51.402;6.054;2023-06-19T14:42:23;32.14;28.66
65989;HTU21D;53592;51.402;6.054;2023-06-19T14:44:49;32.14;28.74
65989;HTU21D;53592;51.402;6.054;2023-06-19T14:47:14;32.15;28.77
65989;HTU21D;53592;51.402;6.054;2023-06-19T14:49:40;32.17;28.52
65989;HTU21D;53592;51.402;6.054;2023-06-19T14:52:06;32.14;28.81
65989;HTU21D;53592;51.402;6.054;2023-06-19T14:54:32;32.20;28.58
65989;HTU21D;53592;51.402;6.054;2023-06-19T14:56:57;32.28;28.46
65989;HTU21D;53592;51.402;6.054;2023-06-19T14:59:23;32.29;27.94
65989;HTU21D;53592;51.402;6.054;2023-06-19T15:01:48;32.07;28.44
65989;HTU21D;53592;51.402;6.054;2023-06-19T15:04:14;32.00;29.14
65989;HTU21D;53592;51.402;6.054;2023-06-19T15:06:39;32.12;28.86
65989;HTU21D;53592;51.402;6.054;2023-06-19T15:09:05;31.97;28.93
65989;HTU21D;53592;51.402;6.054;2023-06-19T15:11:31;31.95;29.10
65989;HTU21D;53592;51.402;6.054;2023-06-19T15:13:56;31.98;29.17